Time;durP1;ratioP1;P1;durP2;ratioP2;P2;SDS_P1;SDS_P2;PMS_P1;PMS_P2;Temp;Humidity;BMP_temperature;BMP_pressure;BME280_temperature;BME280_humidity;BME280_pressure;Samples;Min_cycle;Max_cycle;Signal;HPM_P1;HPM_P2
2023/02/13 00:00:41;;;;;;;3.97;2.10;;;-5.70;99.90;;;;;;4995818;28;20050;-82
2023/02/13 00:03:07;;;;;;;3.63;2.58;;;-5.70;99.90;;;;;;4993633;28;20030;-79
2023/02/13 00:05:33;;;;;;;3.95;2.13;;;-5.70;99.90;;;;;;4994943;28;20035;-81
2023/02/13 00:07:59;;;;;;;5.13;2.53;;;-5.70;99.90;;;;;;4995492;28;20026;-81
2023/02/13 00:10:25;;;;;;;7.40;3.85;;;-5.70;99.90;;;;;;4994313;28;20076;-81
2023/02/13 00:12:51;;;;;;;2.80;2.10;;;-5.70;99.90;;;;;;4995229;28;20022;-81
2023/02/13 00:15:17;;;;;;;5.47;1.98;;;-5.70;99.90;;;;;;4995001;28;20518;-81
2023/02/13 00:17:43;;;;;;;5.60;2.90;;;-5.60;99.90;;;;;;4995526;28;20030;-75
2023/02/13 00:20:10;;;;;;;6.30;2.38;;;-5.60;99.90;;;;;;4994585;28;20034;-76
2023/02/13 00:22:37;;;;;;;;;;;-5.50;99.90;;;;;;4994736;28;20027;-77
2023/02/13 00:25:04;;;;;;;9.40;2.30;;;-5.50;99.90;;;;;;4994414;28;19906;-77
2023/02/13 00:27:30;;;;;;;3.25;2.22;;;-5.40;99.90;;;;;;4994211;28;20478;-77
2023/02/13 00:29:56;;;;;;;4.78;3.05;;;-5.40;99.90;;;;;;4994200;28;20388;-76
2023/02/13 00:32:22;;;;;;;5.38;2.17;;;-5.30;99.90;;;;;;4993741;28;20022;-78
2023/02/13 00:34:48;;;;;;;6.60;2.35;;;-5.30;99.90;;;;;;4993617;28;21336;-77
2023/02/13 00:37:14;;;;;;;4.40;2.65;;;-5.20;99.90;;;;;;4994374;28;20508;-78
2023/02/13 00:39:40;;;;;;;4.15;2.58;;;-5.20;99.90;;;;;;4992781;28;20038;-77
2023/02/13 00:42:07;;;;;;;5.50;3.28;;;-5.20;99.90;;;;;;4990602;28;20129;-77
2023/02/13 00:44:33;;;;;;;2.97;2.05;;;-5.10;99.90;;;;;;4994004;28;20022;-76
2023/02/13 00:46:58;;;;;;;3.83;2.03;;;-5.10;99.90;;;;;;4994275;28;20490;-77
2023/02/13 00:49:24;;;;;;;5.03;2.47;;;-5.10;99.90;;;;;;4991670;28;20026;-77
2023/02/13 00:51:50;;;;;;;4.28;2.22;;;-5.00;99.90;;;;;;4991869;28;20085;-76
2023/02/13 00:54:16;;;;;;;5.40;2.70;;;-5.00;99.90;;;;;;4976676;28;20073;-78
2023/02/13 00:56:42;;;;;;;3.78;2.30;;;-5.00;99.90;;;;;;4985915;28;20050;-77
2023/02/13 00:59:08;;;;;;;3.13;2.33;;;-5.00;99.90;;;;;;4990539;28;20026;-78
2023/02/13 01:01:33;;;;;;;3.65;2.83;;;-4.90;99.90;;;;;;4992043;28;20110;-77
2023/02/13 01:03:59;;;;;;;4.55;3.17;;;-4.90;99.90;;;;;;4991216;28;20045;-77
2023/02/13 01:06:25;;;;;;;7.00;2.97;;;-4.80;99.90;;;;;;4983076;28;20464;-78
2023/02/13 01:08:51;;;;;;;9.77;4.18;;;-4.80;99.90;;;;;;4981264;28;20031;-78
2023/02/13 01:11:18;;;;;;;3.22;2.65;;;-4.70;99.90;;;;;;4979308;28;20077;-78
2023/02/13 01:13:44;;;;;;;6.65;3.33;;;-4.70;99.90;;;;;;4989895;28;20034;-78
2023/02/13 01:16:10;;;;;;;3.75;3.05;;;-4.60;99.90;;;;;;4989508;28;20112;-76
2023/02/13 01:18:36;;;;;;;5.40;3.05;;;-4.60;99.90;;;;;;4993086;28;20038;-77
2023/02/13 01:21:05;;;;;;;6.18;2.85;;;-4.60;99.90;;;;;;4982967;28;20026;-77
2023/02/13 01:23:36;;;;;;;3.20;2.63;;;-4.60;99.90;;;;;;4978802;28;20038;-78
2023/02/13 01:26:04;;;;;;;3.80;2.70;;;-4.60;99.90;;;;;;4996116;28;20010;-78
2023/02/13 01:28:30;;;;;;;3.75;2.40;;;-4.60;99.90;;;;;;4993536;28;20063;-78
2023/02/13 01:30:57;;;;;;;4.85;2.67;;;-4.50;99.90;;;;;;4983567;28;20057;-78
2023/02/13 01:33:24;;;;;;;5.97;2.67;;;-4.50;99.90;;;;;;4986336;28;20469;-76
2023/02/13 01:35:50;;;;;;;4.82;2.50;;;-4.50;99.90;;;;;;4990481;28;20027;-77
2023/02/13 01:38:16;;;;;;;2.90;2.10;;;-4.50;99.80;;;;;;4992571;28;20042;-77
2023/02/13 01:40:52;;;;;;;3.13;2.03;;;-4.50;99.70;;;;;;4990134;28;20022;-76
2023/02/13 01:43:22;;;;;;;3.50;2.25;;;-4.50;99.70;;;;;;4993232;28;20070;-77
2023/02/13 01:45:53;;;;;;;6.78;2.78;;;-4.50;99.80;;;;;;4993122;28;20511;-76
2023/02/13 01:48:25;;;;;;;3.35;2.05;;;-4.50;99.90;;;;;;4992303;28;20029;-77
2023/02/13 01:50:54;;;;;;;5.43;3.17;;;-4.50;99.90;;;;;;4992635;28;20484;-77
2023/02/13 01:53:24;;;;;;;4.78;2.22;;;-4.50;99.90;;;;;;4992991;28;20048;-77
2023/02/13 01:56:04;;;;;;;7.53;3.05;;;-4.40;99.90;;;;;;4989060;28;20272;-76
2023/02/13 01:58:34;;;;;;;5.32;2.92;;;-4.50;99.80;;;;;;4993239;28;20527;-76
2023/02/13 02:01:01;;;;;;;6.47;2.42;;;-4.40;99.80;;;;;;4992786;28;20022;-76
2023/02/13 02:03:41;;;;;;;4.20;2.40;;;-4.40;99.70;;;;;;4992800;28;20503;-74
2023/02/13 02:06:10;;;;;;;6.45;2.47;;;-4.40;99.70;;;;;;4992610;28;20041;-78
2023/02/13 02:08:36;;;;;;;6.18;3.03;;;-4.50;99.70;;;;;;4991162;28;20384;-76
2023/02/13 02:11:21;;;;;;;3.90;2.53;;;-4.40;99.70;;;;;;4992729;28;20108;-76
2023/02/13 02:13:48;;;;;;;6.05;3.08;;;-4.40;99.60;;;;;;4992809;28;20029;-75
2023/02/13 02:16:14;;;;;;;5.75;2.55;;;-4.50;99.60;;;;;;4992594;28;20073;-77
2023/02/13 02:18:40;;;;;;;6.93;3.17;;;-4.50;99.50;;;;;;4992746;28;20088;-75
2023/02/13 02:21:08;;;;;;;5.28;2.95;;;-4.50;99.40;;;;;;4992917;28;20100;-77
2023/02/13 02:24:24;;;;;;;7.53;3.78;;;-4.40;99.50;;;;;;4991630;28;20042;-78
2023/02/13 02:27:03;;;;;;;7.93;4.00;;;-4.40;99.60;;;;;;4982450;28;20030;-78
2023/02/13 02:29:32;;;;;;;9.15;5.82;;;-4.40;99.60;;;;;;4992493;28;20384;-75
2023/02/13 02:32:25;;;;;;;7.30;4.00;;;-4.40;99.60;;;;;;4991311;28;20022;-74
2023/02/13 02:35:10;;;;;;;9.07;4.65;;;-4.40;99.50;;;;;;4980382;28;20026;-77
2023/02/13 02:38:14;;;;;;;7.63;6.05;;;-4.40;99.50;;;;;;4992258;28;20058;-78
2023/02/13 02:41:40;;;;;;;9.60;4.22;;;-4.40;99.60;;;;;;4966424;28;20124;-77
2023/02/13 02:44:32;;;;;;;16.77;7.13;;;-4.40;99.70;;;;;;4986430;28;20388;-78
2023/02/13 02:50:16;;;;;;;8.90;3.75;;;-4.40;99.70;;;;;;4979538;28;20559;-78
2023/02/13 02:53:00;;;;;;;8.40;3.75;;;-4.30;99.70;;;;;;4993088;28;20034;-78
2023/02/13 02:55:31;;;;;;;7.97;4.18;;;-4.30;99.70;;;;;;4996442;28;20027;-78
2023/02/13 03:07:21;;;;;;;6.53;3.35;;;-4.20;99.70;;;;;;4985702;28;20033;-76
2023/02/13 03:22:17;;;;;;;7.25;2.45;;;-4.20;99.90;;;;;;4982361;28;20459;-78
2023/02/13 03:24:13;;;;;;;4.88;2.70;;;-4.30;99.90;;;;;;4995695;28;20458;-77
2023/02/13 03:26:51;;;;;;;3.35;2.47;;;-4.20;99.90;;;;;;4995793;28;20019;-76
2023/02/13 03:32:49;;;;;;;5.97;3.78;;;-4.20;99.90;;;;;;4995041;28;20042;-76
2023/02/13 03:38:59;;;;;;;6.32;2.70;;;-4.20;99.90;;;;;;4983483;28;20038;-76
2023/02/13 03:41:37;;;;;;;8.93;2.97;;;-4.20;99.90;;;;;;4962559;28;20395;-76
2023/02/13 03:44:19;;;;;;;3.42;1.90;;;-4.20;99.90;;;;;;4995632;28;20105;-76
2023/02/13 03:46:49;;;;;;;5.57;2.78;;;-4.20;99.90;;;;;;4981919;28;20035;-76
2023/02/13 03:52:21;;;;;;;4.18;3.20;;;-4.20;99.90;;;;;;4985629;28;20041;-78
2023/02/13 04:00:47;;;;;;;4.22;2.05;;;-4.10;99.90;;;;;;4995497;28;20234;-76
2023/02/13 04:03:19;;;;;;;5.63;2.08;;;-4.00;99.90;;;;;;4994746;28;20066;-77
2023/02/13 04:05:50;;;;;;;5.57;2.03;;;-4.00;99.90;;;;;;4994892;28;20388;-76
2023/02/13 04:08:16;;;;;;;3.42;2.08;;;-4.00;99.90;;;;;;4993631;28;20537;-76
2023/02/13 04:11:16;;;;;;;3.88;2.00;;;-4.00;99.90;;;;;;4995088;28;20129;-75
2023/02/13 04:13:59;;;;;;;4.70;2.55;;;-3.90;99.90;;;;;;4995004;28;20053;-75
2023/02/13 04:16:45;;;;;;;3.83;1.88;;;-3.80;99.90;;;;;;4994794;28;20117;-75
2023/02/13 04:19:11;;;;;;;5.82;2.80;;;-3.80;99.90;;;;;;4992536;28;20026;-77
2023/02/13 04:21:39;;;;;;;4.10;2.80;;;-3.70;99.90;;;;;;4994664;28;20069;-76
2023/02/13 04:24:05;;;;;;;;;;;-3.70;99.90;;;;;;4993710;28;20026;-76
2023/02/13 04:26:38;;;;;;;9.23;2.78;;;-3.70;99.90;;;;;;4994783;28;19906;-74
2023/02/13 04:29:07;;;;;;;3.55;1.90;;;-3.70;99.90;;;;;;4994656;28;20372;-77
2023/02/13 04:31:33;;;;;;;6.80;1.90;;;-3.70;99.90;;;;;;4992080;28;20018;-76
2023/02/13 04:33:59;;;;;;;7.63;2.38;;;-3.70;99.90;;;;;;4994526;28;20085;-78
2023/02/13 04:36:25;;;;;;;4.40;1.80;;;-3.60;99.90;;;;;;4994605;28;20023;-78
2023/02/13 04:38:51;;;;;;;5.22;2.17;;;-3.60;99.90;;;;;;4993672;28;20030;-76
2023/02/13 04:41:17;;;;;;;5.40;2.10;;;-3.60;99.90;;;;;;4994460;28;20085;-76
2023/02/13 04:43:46;;;;;;;3.30;1.85;;;-3.50;99.90;;;;;;4994674;28;20030;-76
2023/02/13 04:46:12;;;;;;;5.22;2.15;;;-3.50;99.90;;;;;;4992815;28;20033;-78
2023/02/13 04:48:40;;;;;;;5.65;1.88;;;-3.50;99.90;;;;;;4991197;28;20480;-77
2023/02/13 04:51:06;;;;;;;4.43;2.15;;;-3.40;99.90;;;;;;4992862;28;20037;-77
2023/02/13 04:53:32;;;;;;;7.30;2.13;;;-3.40;99.90;;;;;;4993311;28;20023;-77
2023/02/13 04:55:58;;;;;;;7.22;2.00;;;-3.40;99.90;;;;;;4993921;28;20107;-76
2023/02/13 04:58:24;;;;;;;4.20;2.47;;;-3.40;99.90;;;;;;4993798;28;20140;-76
2023/02/13 05:00:50;;;;;;;3.35;2.30;;;-3.40;99.90;;;;;;4992516;28;20033;-76
2023/02/13 05:03:15;;;;;;;3.53;1.65;;;-3.30;99.90;;;;;;4992553;28;20030;-76
2023/02/13 05:05:42;;;;;;;3.35;2.00;;;-3.30;99.90;;;;;;4993956;28;20048;-75
2023/02/13 05:08:08;;;;;;;3.47;2.13;;;-3.30;99.90;;;;;;4993714;28;20027;-77
2023/02/13 05:10:34;;;;;;;4.05;2.22;;;-3.20;99.90;;;;;;4992756;28;20092;-77
2023/02/13 05:13:00;;;;;;;4.57;2.20;;;-3.20;99.90;;;;;;4994188;28;20054;-76
2023/02/13 05:15:26;;;;;;;2.13;1.80;;;-3.20;99.90;;;;;;4992817;28;20027;-75
2023/02/13 05:17:52;;;;;;;2.90;1.75;;;-3.20;99.90;;;;;;4980737;28;20034;-77
2023/02/13 05:20:18;;;;;;;4.70;1.75;;;-3.10;99.90;;;;;;4976023;28;20484;-78
2023/02/13 05:25:31;;;;;;;2.78;1.77;;;-3.10;99.90;;;;;;4993572;28;20137;-76
2023/02/13 05:27:57;;;;;;;4.78;1.92;;;-3.10;99.90;;;;;;4993303;28;20026;-77
2023/02/13 05:30:23;;;;;;;5.38;2.15;;;-3.10;99.90;;;;;;4993249;28;20113;-77
2023/02/13 05:32:51;;;;;;;3.65;2.88;;;-3.20;99.90;;;;;;4992491;28;20065;-76
2023/02/13 05:35:18;;;;;;;5.68;2.72;;;-3.10;99.90;;;;;;4991668;28;20026;-77
2023/02/13 05:37:44;;;;;;;3.17;2.10;;;-3.10;99.90;;;;;;4993381;28;20058;-77
2023/02/13 05:40:12;;;;;;;3.08;2.10;;;-3.10;99.90;;;;;;4993054;28;20302;-77
2023/02/13 05:42:38;;;;;;;9.15;2.80;;;-3.10;99.90;;;;;;4992018;28;20373;-76
2023/02/13 05:45:05;;;;;;;3.03;1.63;;;-3.00;99.90;;;;;;4992827;28;20033;-77
2023/02/13 05:47:31;;;;;;;8.57;2.63;;;-3.00;99.90;;;;;;4991590;28;20034;-77
2023/02/13 05:49:56;;;;;;;7.45;2.38;;;-3.00;99.90;;;;;;4991990;28;20030;-77
2023/02/13 05:52:22;;;;;;;4.75;2.33;;;-3.00;99.90;;;;;;4993038;28;20095;-77
2023/02/13 05:54:48;;;;;;;7.47;2.65;;;-2.90;99.90;;;;;;4992912;28;20030;-77
2023/02/13 05:57:14;;;;;;;6.82;2.35;;;-2.90;99.90;;;;;;4992024;28;20566;-77
2023/02/13 05:59:40;;;;;;;2.63;2.15;;;-2.90;99.90;;;;;;4992524;28;20476;-77
2023/02/13 06:02:06;;;;;;;5.18;2.75;;;-2.90;99.90;;;;;;4992333;28;20048;-78
2023/02/13 06:04:32;;;;;;;7.20;2.30;;;-2.90;99.90;;;;;;4991805;28;20022;-77
2023/02/13 06:06:59;;;;;;;3.90;2.28;;;-2.80;99.90;;;;;;4992529;28;20062;-77
2023/02/13 06:09:25;;;;;;;4.50;2.25;;;-2.80;99.90;;;;;;4991545;28;20018;-77
2023/02/13 06:11:51;;;;;;;7.88;2.55;;;-2.80;99.90;;;;;;4992477;28;20157;-77
2023/02/13 06:14:17;;;;;;;3.17;2.42;;;-2.80;99.90;;;;;;4992622;28;20055;-77
2023/02/13 06:16:42;;;;;;;6.20;2.90;;;-2.70;99.90;;;;;;4992745;28;20081;-77
2023/02/13 06:19:08;;;;;;;5.55;2.80;;;-2.70;99.90;;;;;;4991246;28;20424;-77
2023/02/13 06:21:36;;;;;;;5.10;1.95;;;-2.70;99.90;;;;;;4989851;28;20041;-77
2023/02/13 06:24:06;;;;;;;10.40;3.50;;;-2.70;99.90;;;;;;4991126;28;20399;-76
2023/02/13 06:26:33;;;;;;;6.03;3.03;;;-2.70;99.90;;;;;;4992364;28;20014;-77
2023/02/13 06:28:59;;;;;;;8.60;2.85;;;-2.70;99.90;;;;;;4992331;28;20398;-77
2023/02/13 06:31:25;;;;;;;5.85;2.47;;;-2.70;99.90;;;;;;4992423;28;20101;-78
2023/02/13 06:33:51;;;;;;;10.27;2.88;;;-2.60;99.90;;;;;;4992379;28;20030;-77
2023/02/13 06:36:16;;;;;;;3.33;2.08;;;-2.60;99.90;;;;;;4992519;28;20474;-76
2023/02/13 06:38:42;;;;;;;3.08;2.15;;;-2.60;99.90;;;;;;4990998;28;20030;-77
2023/02/13 06:41:11;;;;;;;7.40;4.50;;;-2.50;99.90;;;;;;4992161;28;20392;-77
2023/02/13 06:43:36;;;;;;;10.20;3.13;;;-2.40;99.90;;;;;;4991881;28;20034;-77
2023/02/13 06:46:10;;;;;;;10.35;2.85;;;-2.40;99.90;;;;;;4990713;28;20413;-76
2023/02/13 06:48:35;;;;;;;6.00;3.40;;;-2.40;99.90;;;;;;4989519;28;20484;-77
2023/02/13 06:51:01;;;;;;;4.05;2.72;;;-2.40;99.90;;;;;;4991910;28;20029;-77
2023/02/13 06:53:28;;;;;;;4.65;2.47;;;-2.40;99.90;;;;;;4991924;28;20376;-77
2023/02/13 06:55:55;;;;;;;4.20;2.35;;;-2.30;99.90;;;;;;4991977;28;20109;-77
2023/02/13 06:58:23;;;;;;;4.90;2.95;;;-2.40;99.90;;;;;;4992155;28;20022;-77
2023/02/13 07:00:49;;;;;;;7.20;3.08;;;-2.40;99.90;;;;;;4992050;28;20042;-77
2023/02/13 07:03:15;;;;;;;13.45;4.03;;;-2.30;99.90;;;;;;4988515;28;20030;-78
2023/02/13 07:05:43;;;;;;;5.32;3.45;;;-2.30;99.90;;;;;;4988054;28;20485;-77
2023/02/13 07:08:10;;;;;;;6.07;3.00;;;-2.20;99.90;;;;;;4990875;28;20085;-77
2023/02/13 07:10:37;;;;;;;7.60;3.35;;;-2.20;99.90;;;;;;4991614;28;20035;-77
2023/02/13 07:13:04;;;;;;;9.48;2.92;;;-2.20;99.90;;;;;;4990954;28;20114;-77
2023/02/13 07:15:33;;;;;;;6.30;3.28;;;-2.20;99.90;;;;;;4991130;28;20030;-78
2023/02/13 07:18:02;;;;;;;6.32;3.03;;;-2.20;99.90;;;;;;4990443;28;20026;-79
2023/02/13 07:20:28;;;;;;;5.75;2.30;;;-2.20;99.90;;;;;;4974167;28;20631;-78
2023/02/13 07:22:59;;;;;;;6.07;3.00;;;-2.20;99.90;;;;;;4991441;28;20034;-79
2023/02/13 07:25:25;;;;;;;9.23;3.70;;;-2.10;99.90;;;;;;4991996;28;20022;-78
2023/02/13 07:27:51;;;;;;;7.65;3.33;;;-2.10;99.90;;;;;;4991813;28;20039;-78
2023/02/13 07:30:17;;;;;;;6.22;2.90;;;-2.00;99.90;;;;;;4991535;28;20041;-78
2023/02/13 07:32:42;;;;;;;5.07;2.85;;;-1.90;99.90;;;;;;4990285;28;20488;-77
2023/02/13 07:35:08;;;;;;;3.97;2.67;;;-1.80;99.90;;;;;;4991703;28;20069;-78
2023/02/13 07:37:34;;;;;;;7.38;3.38;;;-1.80;99.90;;;;;;4990437;28;20113;-79
2023/02/13 07:40:00;;;;;;;8.95;3.90;;;-1.80;99.90;;;;;;4993243;28;20026;-79
2023/02/13 07:42:26;;;;;;;5.28;3.30;;;-1.70;99.90;;;;;;4993260;28;20061;-79
2023/02/13 07:44:52;;;;;;;5.47;3.35;;;-1.60;99.90;;;;;;4995131;28;20022;-79
2023/02/13 07:47:18;;;;;;;7.30;4.00;;;-1.60;99.90;;;;;;4993724;28;20022;-76
2023/02/13 07:49:44;;;;;;;8.65;3.40;;;-1.60;99.90;;;;;;4995101;28;20066;-76
2023/02/13 07:52:09;;;;;;;5.45;3.25;;;-1.50;99.90;;;;;;4995095;28;20105;-74
2023/02/13 07:54:36;;;;;;;7.53;3.95;;;-1.60;99.90;;;;;;4995071;28;20022;-75
2023/02/13 07:57:06;;;;;;;7.90;2.58;;;-1.60;99.90;;;;;;4994678;28;20598;-76
2023/02/13 07:59:32;;;;;;;6.43;3.40;;;-1.60;99.90;;;;;;4989688;28;20061;-76
2023/02/13 08:01:57;;;;;;;9.45;4.63;;;-1.70;99.90;;;;;;4995098;28;20038;-77
2023/02/13 08:04:23;;;;;;;9.23;3.28;;;-1.60;99.90;;;;;;4991305;28;20774;-76
2023/02/13 08:06:52;;;;;;;5.93;3.58;;;-1.60;99.90;;;;;;4994514;28;20030;-76
2023/02/13 08:12:06;;;;;;;6.95;2.97;;;-1.60;99.90;;;;;;4994914;28;20121;-76
2023/02/13 08:14:32;;;;;;;7.88;4.85;;;-1.50;99.90;;;;;;4994503;28;20061;-75
2023/02/13 08:16:59;;;;;;;5.68;3.83;;;-1.50;99.90;;;;;;4994609;28;20027;-81
2023/02/13 08:19:25;;;;;;;6.22;3.60;;;-1.50;99.90;;;;;;4991894;28;20022;-78
2023/02/13 08:21:51;;;;;;;8.80;4.68;;;-1.50;99.90;;;;;;4987988;28;20070;-77
2023/02/13 08:24:17;;;;;;;6.78;3.58;;;-1.40;99.90;;;;;;4993282;28;20022;-77
2023/02/13 08:26:43;;;;;;;6.55;3.97;;;-1.40;99.90;;;;;;4994664;28;20369;-78
2023/02/13 08:29:10;;;;;;;9.00;4.97;;;-1.40;99.90;;;;;;4994563;28;20080;-77
2023/02/13 08:31:36;;;;;;;7.57;5.32;;;-1.30;99.90;;;;;;4994445;28;20025;-76
2023/02/13 08:34:02;;;;;;;9.07;5.47;;;-1.20;99.90;;;;;;4994279;28;20137;-77
2023/02/13 08:36:28;;;;;;;12.48;4.20;;;-1.10;99.90;;;;;;4992907;28;20475;-76
2023/02/13 08:38:54;;;;;;;14.85;4.55;;;-1.10;99.90;;;;;;4992287;28;20038;-75
2023/02/13 08:41:21;;;;;;;9.10;4.57;;;-1.00;99.90;;;;;;4993706;28;20105;-77
2023/02/13 08:43:48;;;;;;;7.72;4.07;;;-1.00;99.90;;;;;;4994343;28;20389;-76
2023/02/13 08:46:14;;;;;;;9.40;3.95;;;-0.90;99.90;;;;;;4991114;28;20018;-75
2023/02/13 08:48:40;;;;;;;6.53;3.97;;;-0.90;99.90;;;;;;4994069;28;20022;-76
2023/02/13 08:51:07;;;;;;;8.80;3.50;;;-0.90;99.90;;;;;;4992605;28;20400;-80
2023/02/13 08:53:34;;;;;;;8.63;5.93;;;-0.90;99.90;;;;;;4992652;28;20057;-79
2023/02/13 08:56:00;;;;;;;10.63;4.65;;;-0.90;99.90;;;;;;4993593;28;20050;-79
2023/02/13 08:58:26;;;;;;;10.88;4.00;;;-0.80;99.90;;;;;;4992328;28;20025;-80
2023/02/13 09:00:52;;;;;;;9.10;2.85;;;-0.80;99.90;;;;;;4993709;28;20119;-79
2023/02/13 09:03:18;;;;;;;4.32;3.58;;;-0.80;99.90;;;;;;4993636;28;20725;-78
2023/02/13 09:05:44;;;;;;;7.90;3.65;;;-0.80;99.90;;;;;;4992232;28;20045;-78
2023/02/13 09:08:13;;;;;;;12.48;4.22;;;-0.80;99.90;;;;;;4991948;28;20129;-80
2023/02/13 09:10:45;;;;;;;18.75;5.22;;;-0.70;99.90;;;;;;4990868;28;20029;-81
2023/02/13 09:13:11;;;;;;;6.93;3.60;;;-0.70;99.90;;;;;;4992110;28;20066;-79
2023/02/13 09:15:40;;;;;;;5.38;3.38;;;-0.70;99.90;;;;;;4993533;28;20057;-79
2023/02/13 09:18:06;;;;;;;6.40;4.28;;;-0.80;99.90;;;;;;4992414;28;20408;-77
2023/02/13 09:20:33;;;;;;;8.40;4.47;;;-0.80;99.90;;;;;;4993667;28;20468;-78
2023/02/13 09:22:59;;;;;;;5.75;3.25;;;-0.80;99.90;;;;;;4993548;28;20291;-78
2023/02/13 09:25:25;;;;;;;8.27;5.53;;;-0.80;99.90;;;;;;4992082;28;20548;-75
2023/02/13 09:27:51;;;;;;;7.50;3.40;;;-0.80;99.90;;;;;;4993322;28;20026;-77
2023/02/13 09:30:22;;;;;;;9.40;4.25;;;-0.70;99.90;;;;;;4993247;28;20022;-76
2023/02/13 09:32:49;;;;;;;8.82;3.65;;;-0.70;99.90;;;;;;4991415;28;20057;-76
2023/02/13 09:35:15;;;;;;;7.93;3.92;;;-0.60;99.90;;;;;;4989453;28;20025;-75
2023/02/13 09:37:41;;;;;;;9.00;4.22;;;-0.60;99.90;;;;;;4993047;28;20037;-76
2023/02/13 09:40:22;;;;;;;7.28;3.55;;;-0.60;99.90;;;;;;4993371;28;20023;-77
2023/02/13 09:42:49;;;;;;;4.38;3.83;;;-0.50;99.90;;;;;;4991690;28;20826;-75
2023/02/13 09:45:19;;;;;;;9.15;3.80;;;-0.40;99.90;;;;;;4993340;28;20097;-77
2023/02/13 09:47:46;;;;;;;7.65;4.05;;;-0.40;99.90;;;;;;4992867;28;20030;-77
2023/02/13 09:50:24;;;;;;;6.05;4.15;;;-0.40;99.90;;;;;;4993280;28;20022;-76
2023/02/13 09:52:53;;;;;;;4.53;3.83;;;-0.30;99.90;;;;;;4992840;28;20054;-76
2023/02/13 09:55:21;;;;;;;5.95;4.18;;;-0.20;99.90;;;;;;4993120;28;20383;-78
2023/02/13 09:57:59;;;;;;;8.30;4.13;;;-0.20;99.90;;;;;;4991135;28;20026;-77
2023/02/13 10:00:36;;;;;;;7.30;4.85;;;-0.10;99.90;;;;;;4992944;28;20380;-78
2023/02/13 10:03:41;;;;;;;8.77;4.72;;;0.00;99.90;;;;;;4992360;28;20041;-78
2023/02/13 10:06:14;;;;;;;6.80;4.47;;;0.10;99.90;;;;;;4985441;28;20388;-76
2023/02/13 10:08:57;;;;;;;8.07;4.00;;;0.10;99.90;;;;;;4992301;28;20495;-78
2023/02/13 10:11:35;;;;;;;12.07;4.78;;;0.10;99.90;;;;;;4992713;28;20318;-77
2023/02/13 10:14:31;;;;;;;9.20;4.78;;;0.20;99.90;;;;;;4992556;28;20018;-75
2023/02/13 10:17:35;;;;;;;7.67;3.97;;;0.20;99.90;;;;;;4992543;28;20514;-76
2023/02/13 10:20:25;;;;;;;8.82;4.57;;;0.10;99.90;;;;;;4984115;28;20384;-78
2023/02/13 10:22:58;;;;;;;9.02;4.35;;;0.10;99.90;;;;;;4978960;28;20084;-80
2023/02/13 10:25:28;;;;;;;13.02;4.55;;;0.00;99.90;;;;;;4992305;28;20092;-81
2023/02/13 10:28:06;;;;;;;7.63;4.50;;;0.00;99.90;;;;;;4990270;28;20153;-81
2023/02/13 10:30:40;;;;;;;10.43;5.13;;;0.00;99.90;;;;;;4991860;28;20083;-79
2023/02/13 10:33:27;;;;;;;10.95;4.82;;;0.10;99.90;;;;;;4991043;28;20164;-81
2023/02/13 10:36:10;;;;;;;5.07;4.18;;;0.00;99.90;;;;;;4992212;28;20022;-76
2023/02/13 10:39:05;;;;;;;8.27;4.78;;;0.10;99.90;;;;;;4992020;28;20057;-76
2023/02/13 10:41:43;;;;;;;8.55;4.10;;;0.10;99.90;;;;;;4991181;28;20043;-77
2023/02/13 10:44:27;;;;;;;8.35;4.00;;;0.10;99.90;;;;;;4992088;28;20034;-76
2023/02/13 10:47:21;;;;;;;6.32;4.90;;;0.10;99.90;;;;;;4991908;28;20055;-75
2023/02/13 10:50:13;;;;;;;10.23;4.60;;;0.10;99.90;;;;;;4992391;28;20388;-76
2023/02/13 10:52:54;;;;;;;9.68;5.25;;;0.20;99.90;;;;;;4992214;28;20117;-77
2023/02/13 10:55:57;;;;;;;8.70;5.32;;;0.30;99.90;;;;;;4991835;28;20102;-77
2023/02/13 10:58:37;;;;;;;7.07;4.22;;;0.30;99.90;;;;;;4986108;28;20387;-77
2023/02/13 11:01:18;;;;;;;6.75;4.80;;;0.30;99.90;;;;;;4992187;28;20057;-76
2023/02/13 11:03:46;;;;;;;7.22;4.93;;;0.30;99.90;;;;;;4988491;28;20039;-77
2023/02/13 11:06:16;;;;;;;8.93;4.80;;;0.30;99.90;;;;;;4991902;28;20085;-75
2023/02/13 11:08:46;;;;;;;6.68;3.67;;;0.30;99.90;;;;;;4991643;28;20026;-77
2023/02/13 11:11:42;;;;;;;11.60;5.93;;;0.30;99.90;;;;;;4991724;28;20019;-77
2023/02/13 11:14:17;;;;;;;16.90;6.57;;;0.30;99.90;;;;;;4993147;28;20062;-76
2023/02/13 11:16:54;;;;;;;10.05;6.38;;;0.40;99.90;;;;;;4995790;28;20260;-77
2023/02/13 11:19:29;;;;;;;13.45;5.38;;;0.40;99.90;;;;;;4995743;28;20029;-76
2023/02/13 11:22:07;;;;;;;6.32;3.78;;;0.40;99.90;;;;;;4995792;28;20038;-78
2023/02/13 11:24:34;;;;;;;12.02;4.20;;;0.50;99.90;;;;;;4982602;28;20022;-76
2023/02/13 11:27:12;;;;;;;9.38;4.68;;;0.50;99.90;;;;;;4996398;28;20052;-77
2023/02/13 11:29:55;;;;;;;9.05;4.63;;;0.60;99.90;;;;;;4995702;28;20022;-77
2023/02/13 11:32:25;;;;;;;7.85;5.13;;;0.60;99.90;;;;;;4995475;28;20029;-77
2023/02/13 11:34:53;;;;;;;7.72;4.35;;;0.60;99.90;;;;;;4994160;28;20416;-78
2023/02/13 11:37:29;;;;;;;11.73;5.30;;;0.60;99.90;;;;;;4995390;28;20033;-78
2023/02/13 11:39:57;;;;;;;6.00;4.35;;;0.50;99.90;;;;;;4978133;28;20094;-76
2023/02/13 11:42:35;;;;;;;17.33;9.15;;;0.50;99.90;;;;;;4995501;28;20042;-77
2023/02/13 11:45:22;;;;;;;9.82;5.07;;;0.50;99.90;;;;;;4982689;28;20025;-77
2023/02/13 11:47:48;;;;;;;;;;;0.50;99.90;;;;;;4996070;28;20023;-74
2023/02/13 11:50:34;;;;;;;13.85;5.05;;;0.50;99.90;;;;;;4995377;28;19910;-75
2023/02/13 11:53:21;;;;;;;13.57;5.25;;;0.50;99.90;;;;;;4995472;28;20022;-75
2023/02/13 11:56:16;;;;;;;6.55;3.67;;;0.50;99.90;;;;;;4993155;28;20491;-75
2023/02/13 11:58:42;;;;;;;6.03;3.75;;;0.50;99.90;;;;;;4992696;28;20161;-73
2023/02/13 12:01:28;;;;;;;9.55;4.30;;;0.60;99.90;;;;;;4995403;28;20101;-74
2023/02/13 12:04:06;;;;;;;6.70;4.53;;;0.60;99.90;;;;;;4984029;28;20396;-76
2023/02/13 12:06:38;;;;;;;6.93;3.78;;;0.70;99.90;;;;;;4995061;28;20021;-77
2023/02/13 12:09:11;;;;;;;7.28;3.63;;;0.70;99.90;;;;;;4988337;28;20050;-77
2023/02/13 12:11:48;;;;;;;13.48;4.45;;;0.70;99.90;;;;;;4995071;28;20018;-77
2023/02/13 12:14:39;;;;;;;8.95;3.53;;;0.80;99.90;;;;;;4994766;28;20080;-78
2023/02/13 12:17:21;;;;;;;7.32;3.40;;;0.80;99.90;;;;;;4993345;28;20461;-77
2023/02/13 12:19:49;;;;;;;9.05;4.65;;;0.80;99.90;;;;;;4994695;28;20018;-76
2023/02/13 12:22:36;;;;;;;8.75;4.13;;;0.80;99.90;;;;;;4993046;28;20039;-75
2023/02/13 12:25:26;;;;;;;6.68;3.95;;;0.80;99.90;;;;;;4994058;28;20084;-76
2023/02/13 12:28:02;;;;;;;5.78;3.80;;;0.80;99.90;;;;;;4994579;28;20073;-77
2023/02/13 12:30:42;;;;;;;5.50;3.55;;;0.80;99.90;;;;;;4994542;28;20069;-77
2023/02/13 12:33:09;;;;;;;4.38;3.08;;;0.80;99.90;;;;;;4984778;28;20117;-75
2023/02/13 12:35:56;;;;;;;9.20;3.25;;;0.80;99.90;;;;;;4994447;28;20022;-76
2023/02/13 12:38:52;;;;;;;7.30;3.55;;;0.80;99.90;;;;;;4986899;28;20066;-75
2023/02/13 12:41:35;;;;;;;6.00;3.05;;;0.80;99.90;;;;;;4992568;28;20050;-75
2023/02/13 12:44:12;;;;;;;9.30;3.38;;;0.70;99.90;;;;;;4994077;28;20041;-75
2023/02/13 12:46:57;;;;;;;7.18;4.03;;;0.70;99.90;;;;;;4984810;28;20029;-76
2023/02/13 12:49:37;;;;;;;5.72;3.85;;;0.70;99.90;;;;;;4989056;28;20117;-75
2023/02/13 12:52:18;;;;;;;5.32;2.85;;;0.70;99.90;;;;;;4992588;28;20403;-75
2023/02/13 12:55:10;;;;;;;6.65;2.90;;;0.70;99.90;;;;;;4993785;28;20472;-74
2023/02/13 12:58:01;;;;;;;5.80;3.17;;;0.70;99.90;;;;;;4978013;28;20054;-74
2023/02/13 13:00:40;;;;;;;4.57;2.90;;;0.70;99.90;;;;;;4988757;28;20022;-72
2023/02/13 13:03:15;;;;;;;5.72;3.22;;;0.70;99.90;;;;;;4986816;28;20030;-75
2023/02/13 13:06:19;;;;;;;6.93;3.03;;;0.70;99.90;;;;;;4989505;28;20026;-74
2023/02/13 13:09:12;;;;;;;16.10;4.57;;;0.70;99.90;;;;;;4972429;28;20492;-75
2023/02/13 13:12:10;;;;;;;5.57;3.10;;;0.70;99.90;;;;;;4993434;28;20026;-75
2023/02/13 13:14:52;;;;;;;10.82;4.50;;;0.70;99.90;;;;;;4986656;28;20511;-76
2023/02/13 13:17:29;;;;;;;7.95;3.80;;;0.70;99.90;;;;;;4993011;28;20018;-75
2023/02/13 13:20:03;;;;;;;;;;;0.70;99.90;;;;;;4993749;28;20559;-76
2023/02/13 13:22:50;;;;;;;5.55;3.17;;;0.70;99.90;;;;;;4993375;28;20040;-76
2023/02/13 13:25:26;;;;;;;10.53;4.30;;;0.70;99.90;;;;;;4993592;28;20477;-79
2023/02/13 13:27:59;;;;;;;6.40;3.85;;;0.70;99.90;;;;;;4994733;28;20117;-77
2023/02/13 13:30:32;;;;;;;9.65;5.40;;;0.70;99.90;;;;;;4993231;28;20030;-77
2023/02/13 13:33:25;;;;;;;7.15;4.75;;;0.70;99.90;;;;;;4991930;28;20022;-77
2023/02/13 13:35:56;;;;;;;8.95;5.07;;;0.70;99.90;;;;;;4992577;28;20114;-78
2023/02/13 13:38:44;;;;;;;8.27;4.93;;;0.70;99.90;;;;;;4992743;28;20049;-78
2023/02/13 13:41:47;;;;;;;8.38;5.38;;;0.70;99.90;;;;;;4993166;28;20407;-77
2023/02/13 13:44:19;;;;;;;12.43;4.88;;;;;;;;;;4991882;28;20093;-76
2023/02/13 13:47:01;;;;;;;6.85;4.63;;;0.70;99.90;;;;;;4992760;28;20101;-77
2023/02/13 13:49:47;;;;;;;4.43;3.13;;;0.70;99.90;;;;;;4991374;28;20029;-75
2023/02/13 13:52:28;;;;;;;7.90;4.00;;;0.70;99.90;;;;;;4983030;28;20101;-77
2023/02/13 13:54:59;;;;;;;5.97;4.35;;;0.70;99.90;;;;;;4992604;28;20480;-78
2023/02/13 13:57:39;;;;;;;5.25;3.90;;;0.70;99.90;;;;;;4992872;28;20145;-80
2023/02/13 14:00:08;;;;;;;4.43;3.60;;;0.70;99.90;;;;;;4992664;28;20046;-77
2023/02/13 14:02:38;;;;;;;8.68;3.60;;;0.70;99.90;;;;;;4991413;28;20030;-78